createdAt,value
2022-11-14T00:01:17.784Z,98222.19
2022-11-14T00:04:19.184Z,98211.84
2022-11-14T00:07:20.610Z,98224.75
2022-11-14T00:10:22.083Z,98223.91
2022-11-14T00:13:23.389Z,98215.63
2022-11-14T00:16:34.523Z,98211.56
2022-11-14T00:19:35.925Z,98208.78
2022-11-14T00:22:37.322Z,98208.69
2022-11-14T00:25:38.830Z,98201.06
2022-11-14T00:28:40.305Z,98197.50
2022-11-14T00:31:41.811Z,98198.41
2022-11-14T00:34:43.361Z,98194.16
2022-11-14T00:37:44.820Z,98192.50
2022-11-14T00:40:46.214Z,98187.31
2022-11-14T00:43:47.563Z,98179.56
2022-11-14T00:46:48.963Z,98188.25
2022-11-14T00:49:50.867Z,98181.41
2022-11-14T00:52:52.290Z,98184.84
2022-11-14T00:55:53.798Z,98178.00
2022-11-14T00:58:55.154Z,98169.44
2022-11-14T01:01:58.021Z,98169.59
2022-11-14T01:05:00.264Z,98170.25
2022-11-14T01:08:01.900Z,98173.59
2022-11-14T01:11:08.315Z,98167.38
2022-11-14T01:14:09.715Z,98164.81
2022-11-14T01:17:11.273Z,98164.91
2022-11-14T01:20:12.962Z,98163.00
2022-11-14T01:23:15.668Z,98157.94
2022-11-14T01:26:17.050Z,98151.06
2022-11-14T01:29:18.417Z,98146.78
2022-11-14T01:32:19.793Z,98153.56
2022-11-14T01:35:21.287Z,98151.50
2022-11-14T01:38:22.727Z,98143.72
2022-11-14T01:41:24.277Z,98128.53
2022-11-14T01:44:38.459Z,98127.63
2022-11-14T01:47:39.851Z,98128.53
2022-11-14T01:50:41.315Z,98115.41
2022-11-14T01:53:42.972Z,98108.34
2022-11-14T01:56:46.926Z,98101.25
2022-11-14T01:59:50.219Z,98092.88
2022-11-14T02:02:51.705Z,98095.44
2022-11-14T02:05:53.063Z,98085.81
2022-11-14T02:08:54.438Z,98087.47
2022-11-14T02:11:57.166Z,98078.88
2022-11-14T02:14:58.639Z,98080.44
2022-11-14T02:18:00.354Z,98074.59
2022-11-14T02:21:01.748Z,98070.53
2022-11-14T02:24:03.162Z,98080.69
2022-11-14T02:27:04.658Z,98083.34
2022-11-14T02:30:10.366Z,98076.28
2022-11-14T02:33:12.076Z,98072.22
2022-11-14T02:36:13.676Z,98071.25
2022-11-14T02:39:15.103Z,98067.72
2022-11-14T02:42:16.513Z,98066.66
2022-11-14T02:45:18.108Z,98062.44
2022-11-14T02:48:19.628Z,98052.09
2022-11-14T02:51:20.982Z,98057.13
2022-11-14T02:54:22.333Z,98059.91
2022-11-14T02:57:23.683Z,98069.41
2022-11-14T03:00:25.156Z,98066.72
2022-11-14T03:03:26.603Z,98065.06
2022-11-14T03:06:30.900Z,98071.00
2022-11-14T03:09:32.271Z,98058.97
2022-11-14T03:12:33.632Z,98062.44
2022-11-14T03:15:37.006Z,98064.19
2022-11-14T03:18:38.412Z,98057.88
2022-11-14T03:21:39.776Z,98053.59
2022-11-14T03:24:41.219Z,98058.09
2022-11-14T03:27:42.730Z,98053.69
2022-11-14T03:30:44.135Z,98050.44
2022-11-14T03:33:45.483Z,98059.16
2022-11-14T03:36:46.899Z,98057.53
2022-11-14T03:39:48.294Z,98052.47
2022-11-14T03:42:49.702Z,98045.44
2022-11-14T03:45:51.169Z,98036.84
2022-11-14T03:48:52.577Z,98033.63
2022-11-14T03:51:54.971Z,98023.13
2022-11-14T03:54:56.362Z,98023.81
2022-11-14T03:57:57.731Z,98026.69
2022-11-14T04:00:59.181Z,98020.94
2022-11-14T04:04:00.650Z,98019.03
2022-11-14T04:07:02.050Z,98010.44
2022-11-14T04:10:03.559Z,98019.16
2022-11-14T04:13:05.063Z,98009.59
2022-11-14T04:16:06.560Z,98000.38
2022-11-14T04:19:08.006Z,98005.44
2022-11-14T04:22:09.405Z,98009.72
2022-11-14T04:25:10.779Z,98004.34
2022-11-14T04:28:12.241Z,98010.97
2022-11-14T04:31:13.640Z,98008.75
2022-11-14T04:34:15.030Z,98003.66
2022-11-14T04:37:16.539Z,98005.53
2022-11-14T04:40:17.995Z,98002.09
2022-11-14T04:43:19.671Z,97997.88
2022-11-14T04:46:21.144Z,97994.47
2022-11-14T04:49:23.091Z,97996.38
2022-11-14T04:52:24.464Z,97987.69
2022-11-14T04:55:25.964Z,97978.25
2022-11-14T04:58:27.572Z,97968.94
2022-11-14T05:01:29.122Z,97967.06
2022-11-14T05:04:31.096Z,97965.47
2022-11-14T05:07:32.779Z,97957.72
2022-11-14T05:10:34.238Z,97953.69
2022-11-14T05:13:35.665Z,97952.03
2022-11-14T05:16:37.039Z,97942.59
2022-11-14T05:19:38.519Z,97941.69
2022-11-14T05:22:39.960Z,97938.41
2022-11-14T05:25:41.395Z,97930.59
2022-11-14T05:28:42.779Z,97940.09
2022-11-14T05:31:44.193Z,97936.72
2022-11-14T05:34:45.672Z,97940.25
2022-11-14T05:37:47.070Z,97941.16
2022-11-14T05:40:48.471Z,97932.72
2022-11-14T05:43:49.892Z,97937.81
2022-11-14T05:46:51.289Z,97937.06
2022-11-14T05:49:52.774Z,97939.69
2022-11-14T05:52:54.177Z,97936.09
2022-11-14T05:55:55.873Z,97922.63
2022-11-14T05:58:57.299Z,97935.56
2022-11-14T06:01:58.770Z,97922.78
2022-11-14T06:05:00.172Z,97925.22
2022-11-14T06:08:01.580Z,97922.59
2022-11-14T06:11:03.797Z,97920.97
2022-11-14T06:14:10.561Z,97914.13
2022-11-14T06:17:12.465Z,97913.19
2022-11-14T06:20:14.142Z,97905.53
2022-11-14T06:23:17.543Z,97902.25
2022-11-14T06:26:30.299Z,97895.47
2022-11-14T06:29:35.445Z,97900.69
2022-11-14T06:32:37.176Z,97907.66
2022-11-14T06:35:38.566Z,97904.28
2022-11-14T06:38:40.359Z,97914.03
2022-11-14T06:41:41.700Z,97908.16
2022-11-14T06:44:43.197Z,97904.66
2022-11-14T06:47:44.626Z,97910.63
2022-11-14T06:50:51.106Z,97908.00
2022-11-14T06:53:52.487Z,97914.19
2022-11-14T06:56:53.925Z,97913.47
2022-11-14T06:59:55.366Z,97924.66
2022-11-14T07:02:56.811Z,97917.84
2022-11-14T07:05:58.742Z,97923.84
2022-11-14T07:09:00.171Z,97921.41
2022-11-14T07:12:01.569Z,97925.78
2022-11-14T07:15:02.975Z,97919.91
2022-11-14T07:18:04.419Z,97935.50
2022-11-14T07:21:06.018Z,97935.56
2022-11-14T07:24:07.510Z,97937.44
2022-11-14T07:27:12.158Z,97934.03
2022-11-14T07:30:13.840Z,97933.19
2022-11-14T07:33:15.329Z,97951.38
2022-11-14T07:36:16.818Z,97944.56
2022-11-14T07:39:18.216Z,97949.78
2022-11-14T07:42:19.680Z,97943.00
2022-11-14T07:45:21.095Z,97947.44
2022-11-14T07:48:23.634Z,97951.00
2022-11-14T07:51:25.059Z,97943.31
2022-11-14T07:54:26.640Z,97949.44
2022-11-14T07:57:28.004Z,97940.97
2022-11-14T08:00:29.419Z,97951.38
2022-11-14T08:03:30.857Z,97959.19
2022-11-14T08:06:32.313Z,97956.72
2022-11-14T08:09:33.710Z,97964.59
2022-11-14T08:12:35.133Z,97959.59
2022-11-14T08:15:36.520Z,97954.56
2022-11-14T08:18:38.045Z,97961.59
2022-11-14T08:21:39.436Z,97956.50
2022-11-14T08:24:40.905Z,97956.63
2022-11-14T08:27:42.577Z,97961.91
2022-11-14T08:30:44.033Z,97955.13
2022-11-14T08:33:45.635Z,97953.47
2022-11-14T08:36:47.339Z,97950.88
2022-11-14T08:39:48.750Z,97954.41
2022-11-14T08:42:50.174Z,97953.59
2022-11-14T08:45:51.898Z,97948.47
2022-11-14T08:48:53.427Z,97953.59
2022-11-14T08:51:54.832Z,97952.63
2022-11-14T08:54:56.296Z,97956.16
2022-11-14T08:57:57.750Z,97964.78
2022-11-14T09:01:01.114Z,97962.22
2022-11-14T09:04:02.772Z,97958.78
2022-11-14T09:07:04.348Z,97957.97
2022-11-14T09:10:06.157Z,97948.53
2022-11-14T09:13:07.534Z,97947.75
2022-11-14T09:16:08.920Z,97965.03
2022-11-14T09:19:10.358Z,97957.28
2022-11-14T09:22:11.758Z,97957.31
2022-11-14T09:25:13.157Z,97957.31
2022-11-14T09:28:14.652Z,97962.53
2022-11-14T09:31:16.015Z,97956.56
2022-11-14T09:34:17.488Z,97951.47
2022-11-14T09:37:18.911Z,97961.03
2022-11-14T09:40:20.270Z,97958.44
2022-11-14T09:43:35.126Z,97945.50
2022-11-14T09:46:40.537Z,97948.16
2022-11-14T09:49:43.277Z,97956.78
2022-11-14T09:53:08.032Z,97951.63
2022-11-14T09:56:17.643Z,97954.28
2022-11-14T09:59:19.110Z,97949.94
2022-11-14T10:02:23.783Z,97947.34
2022-11-14T10:05:25.242Z,97951.63
2022-11-14T10:08:32.047Z,97942.13
2022-11-14T10:11:36.308Z,97941.25
2022-11-14T10:14:53.324Z,97942.09
2022-11-14T10:18:18.380Z,97942.97
2022-11-14T10:21:22.797Z,97942.06
2022-11-14T10:24:33.364Z,97936.84
2022-11-14T10:27:40.210Z,97942.03
2022-11-14T10:30:51.349Z,97935.06
2022-11-14T10:33:57.838Z,97940.13
2022-11-14T10:37:04.449Z,97930.41
2022-11-14T10:40:14.778Z,97935.47
2022-11-14T10:43:22.481Z,97940.56
2022-11-14T10:46:27.686Z,97937.88
2022-11-14T10:49:30.369Z,97936.97
2022-11-14T10:52:36.350Z,97938.72
2022-11-14T10:55:57.734Z,97937.88
2022-11-14T10:58:59.115Z,97943.03
2022-11-14T11:02:00.495Z,97949.94
2022-11-14T11:05:05.064Z,97943.81
2022-11-14T11:11:57.007Z,97952.41
2022-11-14T11:15:15.149Z,97954.91
2022-11-14T11:18:24.205Z,97957.44
2022-11-14T11:21:25.672Z,97959.19
2022-11-14T11:24:33.682Z,97965.22
2022-11-14T11:27:35.171Z,97963.50
2022-11-14T11:30:36.568Z,97963.47
2022-11-14T11:33:38.582Z,97971.28
2022-11-14T11:36:41.154Z,97980.75
2022-11-14T11:39:52.563Z,97980.75
2022-11-14T11:46:26.070Z,97998.16
2022-11-14T11:49:30.757Z,97996.38
2022-11-14T11:52:33.656Z,97985.94
2022-11-14T11:55:37.878Z,97998.00
2022-11-14T11:58:49.358Z,97985.81
2022-11-14T12:01:51.531Z,97997.03
2022-11-14T12:04:53.543Z,97996.06
2022-11-14T12:08:04.267Z,97996.91
2022-11-14T12:11:06.069Z,98005.53
2022-11-14T12:14:12.280Z,97995.16
2022-11-14T12:17:23.709Z,98014.00
2022-11-14T12:20:32.185Z,98032.00
2022-11-14T12:23:56.381Z,98041.53
2022-11-14T12:27:16.753Z,98049.41
2022-11-14T12:30:19.057Z,98062.31
2022-11-14T12:33:30.798Z,98068.38
2022-11-14T12:36:35.496Z,98071.84
2022-11-14T12:39:37.519Z,98064.09
2022-11-14T12:42:38.964Z,98073.63
2022-11-14T12:45:40.369Z,98066.72
2022-11-14T12:48:42.312Z,98094.44
2022-11-14T12:51:46.877Z,98137.75
2022-11-14T12:54:49.328Z,98147.28
2022-11-14T12:58:09.234Z,98149.16
2022-11-14T13:01:19.855Z,98163.94
2022-11-14T13:04:24.488Z,98181.94
2022-11-14T13:07:34.155Z,98184.28
2022-11-14T13:10:39.970Z,98206.72
2022-11-14T13:14:13.588Z,98211.75
2022-11-14T13:17:36.679Z,98234.28
2022-11-14T13:20:56.788Z,98234.94
2022-11-14T13:23:58.246Z,98235.84
2022-11-14T13:27:00.067Z,98235.78
2022-11-14T13:30:02.835Z,98249.44
2022-11-14T13:33:04.337Z,98252.59
2022-11-14T13:36:05.962Z,98239.88
2022-11-14T13:39:10.516Z,98237.53
2022-11-14T13:42:16.150Z,98239.69
2022-11-14T13:45:21.679Z,98250.31
2022-11-14T13:48:28.157Z,98249.25
2022-11-14T13:51:42.792Z,98239.72
2022-11-14T13:54:46.176Z,98232.84
2022-11-14T13:58:06.549Z,98232.84
2022-11-14T14:01:08.049Z,98243.38
2022-11-14T14:04:09.502Z,98242.56
2022-11-14T14:07:29.624Z,98240.00
2022-11-14T14:10:51.375Z,98238.16
2022-11-14T14:13:59.015Z,98233.84
2022-11-14T14:17:03.122Z,98238.34
2022-11-14T14:20:23.448Z,98242.44
2022-11-14T14:23:32.182Z,98237.34
2022-11-14T14:26:33.651Z,98239.91
2022-11-14T14:29:41.379Z,98245.66
2022-11-14T14:32:42.774Z,98242.31
2022-11-14T14:35:51.658Z,98236.34
2022-11-14T14:39:11.981Z,98235.69
2022-11-14T14:42:13.380Z,98237.81
2022-11-14T14:45:18.645Z,98237.97
2022-11-14T14:48:23.803Z,98233.53
2022-11-14T14:51:32.156Z,98249.25
2022-11-14T14:54:33.624Z,98239.81
2022-11-14T14:57:35.022Z,98231.97
2022-11-14T15:00:36.498Z,98242.16
2022-11-14T15:03:38.961Z,98238.47
2022-11-14T15:06:40.615Z,98240.16
2022-11-14T15:09:50.996Z,98242.72
2022-11-14T15:12:53.223Z,98234.91
2022-11-14T15:15:54.632Z,98237.63
2022-11-14T15:18:56.352Z,98230.81
2022-11-14T15:22:01.464Z,98237.91
2022-11-14T15:25:11.943Z,98240.56
2022-11-14T15:28:17.365Z,98234.66
2022-11-14T15:31:19.470Z,98246.09
2022-11-14T15:34:39.974Z,98246.03
2022-11-14T15:37:41.406Z,98245.13
2022-11-14T15:40:42.874Z,98248.53
2022-11-14T15:43:44.358Z,98249.47
2022-11-14T15:46:46.431Z,98251.78
2022-11-14T15:50:06.797Z,98246.66
2022-11-14T15:53:39.354Z,98262.06
2022-11-14T15:56:40.747Z,98255.03
2022-11-14T15:59:42.230Z,98259.69
2022-11-14T16:02:46.412Z,98270.38
2022-11-14T16:05:47.944Z,98263.41
2022-11-14T16:08:49.402Z,98265.84
2022-11-14T16:11:50.795Z,98263.28
2022-11-14T16:14:52.209Z,98277.34
2022-11-14T16:17:53.673Z,98282.72
2022-11-14T16:20:59.299Z,98285.34
2022-11-14T16:24:01.413Z,98297.50
2022-11-14T16:27:02.975Z,98317.19
2022-11-14T16:30:04.578Z,98313.22
2022-11-14T16:33:06.203Z,98304.66
2022-11-14T16:36:09.215Z,98294.25
2022-11-14T16:39:13.435Z,98286.66
2022-11-14T16:42:14.988Z,98272.13
2022-11-14T16:45:17.102Z,98254.00
2022-11-14T16:48:18.630Z,98227.19
2022-11-14T16:51:47.054Z,98209.06
2022-11-14T16:54:51.143Z,98196.94
2022-11-14T16:57:52.586Z,98182.22
2022-11-14T17:00:54.076Z,98168.41
2022-11-14T17:03:56.955Z,98172.78
2022-11-14T17:06:58.505Z,98161.47
2022-11-14T17:10:03.094Z,98163.22
2022-11-14T17:13:04.547Z,98153.72
2022-11-14T17:16:06.231Z,98145.13
2022-11-14T17:19:08.049Z,98146.03
2022-11-14T17:22:09.473Z,98144.31
2022-11-14T17:25:12.593Z,98120.03
2022-11-14T17:28:14.026Z,98126.09
2022-11-14T17:31:16.265Z,98117.47
2022-11-14T17:34:17.725Z,98107.09
2022-11-14T17:37:19.191Z,98108.88
2022-11-14T17:40:20.654Z,98105.44
2022-11-14T17:43:22.165Z,98098.53
2022-11-14T17:46:23.612Z,98095.06
2022-11-14T17:49:30.538Z,98093.31
2022-11-14T17:52:31.964Z,98081.19
2022-11-14T17:55:33.530Z,98084.69
2022-11-14T17:58:35.315Z,98081.25
2022-11-14T18:01:36.770Z,98082.97
2022-11-14T18:04:38.274Z,98074.31
2022-11-14T18:07:39.699Z,98074.31
2022-11-14T18:10:42.830Z,98076.97
2022-11-14T18:13:44.403Z,98072.63
2022-11-14T18:17:11.317Z,98072.66
2022-11-14T18:20:07.737Z,98065.72
2022-11-14T18:23:09.222Z,98067.50
2022-11-14T18:26:14.667Z,98064.88
2022-11-14T18:29:16.091Z,98065.78
2022-11-14T18:32:18.151Z,98063.19
2022-11-14T18:35:19.562Z,98049.31
2022-11-14T18:38:21.043Z,98047.56
2022-11-14T18:41:22.576Z,98042.41
2022-11-14T18:44:27.543Z,98041.50
2022-11-14T18:47:29.316Z,98045.91
2022-11-14T18:50:31.052Z,98047.63
2022-11-14T18:53:33.217Z,98041.56
2022-11-14T18:56:34.959Z,98032.91
2022-11-14T18:59:38.290Z,98041.59
2022-11-14T19:02:39.665Z,98030.31
2022-11-14T19:05:41.098Z,98032.06
2022-11-14T19:08:42.498Z,98024.28
2022-11-14T19:12:02.505Z,98030.34
2022-11-14T19:15:04.152Z,98022.56
2022-11-14T19:18:05.785Z,98031.25
2022-11-14T19:21:07.309Z,98029.50
2022-11-14T19:24:09.048Z,98026.06
2022-11-14T19:27:10.444Z,98020.88
2022-11-14T19:30:11.989Z,98020.00
2022-11-14T19:33:13.417Z,98020.00
2022-11-14T19:36:44.895Z,98026.94
2022-11-14T19:39:40.481Z,98027.78
2022-11-14T19:42:42.011Z,98021.72
2022-11-14T19:45:43.494Z,98022.63
2022-11-14T19:48:44.974Z,98011.34
2022-11-14T19:51:46.538Z,98020.00
2022-11-14T19:54:49.232Z,98013.94
2022-11-14T19:57:50.730Z,98013.97
2022-11-14T20:00:52.175Z,98017.41
2022-11-14T20:03:56.576Z,98020.03
2022-11-14T20:06:58.122Z,98021.75
2022-11-14T20:09:59.580Z,98020.88
2022-11-14T20:13:01.011Z,98022.63
2022-11-14T20:16:11.062Z,98016.56
2022-11-14T20:19:13.756Z,98017.44
2022-11-14T20:22:15.162Z,98010.53
2022-11-14T20:25:17.084Z,98021.75
2022-11-14T20:28:18.764Z,98011.38
2022-11-14T20:31:20.957Z,98021.75
2022-11-14T20:34:23.045Z,98024.38
2022-11-14T20:37:24.451Z,98025.22
2022-11-14T20:40:26.039Z,98019.16
2022-11-14T20:43:28.276Z,98026.09
2022-11-14T20:46:29.864Z,98014.84
2022-11-14T20:49:31.314Z,98028.69
2022-11-14T20:52:32.854Z,98036.47
2022-11-14T20:55:34.598Z,98031.28
2022-11-14T20:58:36.059Z,98027.81
2022-11-14T21:01:43.727Z,98031.28
2022-11-14T21:04:45.604Z,98026.06
2022-11-14T21:07:47.039Z,98021.75
2022-11-14T21:10:49.210Z,98024.34
2022-11-14T21:13:56.736Z,98020.00
2022-11-14T21:16:58.261Z,98014.75
2022-11-14T21:19:59.700Z,98022.53
2022-11-14T21:23:01.146Z,98014.75
2022-11-14T21:26:06.598Z,98007.81
2022-11-14T21:29:09.656Z,98007.81
2022-11-14T21:32:11.116Z,98013.84
2022-11-14T21:35:12.501Z,98004.31
2022-11-14T21:38:13.896Z,98014.69
2022-11-14T21:41:16.586Z,98005.19
2022-11-14T21:44:18.523Z,98010.34
2022-11-14T21:47:19.881Z,98008.59
2022-11-14T21:50:21.430Z,98008.59
2022-11-14T21:53:22.920Z,98008.59
2022-11-14T21:56:25.498Z,98003.34
2022-11-14T21:59:29.202Z,98005.09
2022-11-14T22:02:48.987Z,98004.19
2022-11-14T22:05:55.368Z,98007.63
2022-11-14T22:08:57.102Z,98002.44
2022-11-14T22:11:58.451Z,98007.63
2022-11-14T22:14:59.916Z,98001.59
2022-11-14T22:18:01.372Z,98007.63
2022-11-14T22:21:05.834Z,97997.25
2022-11-14T22:24:07.251Z,98009.34
2022-11-14T22:27:08.689Z,98001.56
2022-11-14T22:30:10.591Z,98004.97
2022-11-14T22:33:12.164Z,98001.53
2022-11-14T22:36:17.522Z,98003.25
2022-11-14T22:39:19.090Z,98010.16
2022-11-14T22:42:20.509Z,98007.56
2022-11-14T22:45:21.956Z,98004.94
2022-11-14T22:48:23.884Z,98006.66
2022-11-14T22:51:25.952Z,98010.94
2022-11-14T22:54:27.463Z,98011.81
2022-11-14T22:57:28.834Z,98012.66
2022-11-14T23:00:30.330Z,98016.06
2022-11-14T23:03:32.080Z,98014.38
2022-11-14T23:06:33.909Z,98001.38
2022-11-14T23:09:35.476Z,98006.53
2022-11-14T23:12:37.113Z,98015.19
2022-11-14T23:15:38.668Z,98016.03
2022-11-14T23:18:40.313Z,98026.41
2022-11-14T23:21:41.815Z,98020.38
2022-11-14T23:24:43.395Z,98022.13
2022-11-14T23:27:44.831Z,98023.84
2022-11-14T23:30:46.298Z,98012.63
2022-11-14T23:33:48.170Z,98010.88
2022-11-14T23:36:49.612Z,98020.38
2022-11-14T23:39:51.051Z,98012.59
2022-11-14T23:42:52.774Z,98012.59
2022-11-14T23:45:54.160Z,98000.50
2022-11-14T23:48:55.714Z,97997.94
2022-11-14T23:51:57.165Z,97996.19
2022-11-14T23:54:58.624Z,97997.06
2022-11-14T23:58:00.160Z,97987.56
